Time;durP1;ratioP1;P1;durP2;ratioP2;P2;SDS_P1;SDS_P2;PMS_P1;PMS_P2;Temp;Humidity;BMP_temperature;BMP_pressure;BME280_temperature;BME280_humidity;BME280_pressure;Samples;Min_cycle;Max_cycle;Signal;HPM_P1;HPM_P2
2022/08/23 00:00:07;;;;;;;2.70;2.60;;;27.40;60.00;;;;;;5048951;28;20487;-71
2022/08/23 00:02:41;;;;;;;3.03;2.77;;;27.40;59.90;;;;;;5048684;28;20449;-71
2022/08/23 00:05:10;;;;;;;3.00;2.80;;;27.40;59.90;;;;;;5043415;28;20919;-72
2022/08/23 00:07:40;;;;;;;3.10;2.90;;;27.40;59.90;;;;;;5052501;28;20467;-71
2022/08/23 00:10:11;;;;;;;2.77;2.57;;;27.30;59.70;;;;;;5057521;28;20831;-72
2022/08/23 00:12:42;;;;;;;3.30;3.10;;;27.30;59.70;;;;;;5056042;28;20941;-71
2022/08/23 00:15:14;;;;;;;3.00;2.80;;;27.30;59.70;;;;;;5043126;28;20483;-71
2022/08/23 00:17:42;;;;;;;3.20;3.00;;;27.30;59.70;;;;;;5042536;28;20468;-72
2022/08/23 00:20:14;;;;;;;3.53;3.23;;;27.30;59.70;;;;;;5056013;28;20481;-71
2022/08/23 00:22:42;;;;;;;3.17;2.93;;;27.30;59.90;;;;;;5052843;28;20428;-71
2022/08/23 00:25:13;;;;;;;3.00;2.80;;;27.30;59.60;;;;;;5058462;28;21041;-71
2022/08/23 00:27:43;;;;;;;3.10;2.90;;;27.30;59.70;;;;;;5042287;28;20521;-70
2022/08/23 00:30:13;;;;;;;2.60;2.50;;;27.30;59.70;;;;;;5039122;28;20524;-71
2022/08/23 00:32:42;;;;;;;3.40;3.20;;;27.30;59.70;;;;;;5049466;28;20454;-72
2022/08/23 00:35:12;;;;;;;2.70;2.60;;;27.30;59.70;;;;;;5042368;28;20473;-71
2022/08/23 00:37:54;;;;;;;3.20;3.00;;;27.20;59.60;;;;;;5053706;28;20454;-71
2022/08/23 00:40:43;;;;;;;2.63;2.43;;;27.20;59.60;;;;;;5073199;28;20453;-75
2022/08/23 00:49:00;;;;;;;3.00;2.80;;;27.20;59.60;;;;;;5052949;28;20498;-71
2022/08/23 00:51:34;;;;;;;2.80;2.70;;;27.20;59.60;;;;;;5050823;28;20514;-71
2022/08/23 00:54:22;;;;;;;2.87;2.67;;;27.20;59.70;;;;;;5033699;28;20435;-71
2022/08/23 00:56:52;;;;;;;3.30;3.10;;;27.20;59.60;;;;;;5033370;28;20447;-71
2022/08/23 00:59:23;;;;;;;3.23;3.03;;;27.20;59.60;;;;;;5033528;28;20490;-71
2022/08/23 01:01:51;;;;;;;4.00;3.70;;;27.20;59.60;;;;;;5049464;28;21330;-75
2022/08/23 01:04:20;;;;;;;3.20;3.00;;;27.10;59.60;;;;;;5040276;28;20883;-74
2022/08/23 01:06:54;;;;;;;3.43;3.23;;;27.10;59.50;;;;;;5053425;28;20804;-71
2022/08/23 01:09:22;;;;;;;3.17;2.97;;;27.10;59.50;;;;;;5051498;28;20495;-70
2022/08/23 01:11:56;;;;;;;3.20;2.90;;;27.10;59.60;;;;;;5057155;28;21015;-70
2022/08/23 01:14:33;;;;;;;3.07;2.87;;;27.10;59.50;;;;;;5065333;28;20556;-71
2022/08/23 01:17:05;;;;;;;3.67;3.30;;;27.10;59.60;;;;;;5055832;28;20470;-70
2022/08/23 01:19:36;;;;;;;2.73;2.47;;;27.10;59.60;;;;;;5046716;28;20489;-72
2022/08/23 01:22:09;;;;;;;2.83;2.63;;;27.10;59.50;;;;;;5046088;28;20494;-71
2022/08/23 01:24:40;;;;;;;2.50;2.40;;;27.10;59.50;;;;;;5064897;28;20926;-72
2022/08/23 01:27:30;;;;;;;3.07;2.83;;;27.10;59.40;;;;;;5032740;28;20469;-73
2022/08/23 01:30:00;;;;;;;3.13;2.87;;;27.10;59.30;;;;;;5033181;28;20455;-70
2022/08/23 01:32:31;;;;;;;3.47;3.27;;;27.10;59.30;;;;;;5033934;28;20455;-71
2022/08/23 01:35:00;;;;;;;3.27;2.80;;;27.00;59.30;;;;;;5038758;28;20450;-71
2022/08/23 01:37:28;;;;;;;3.00;2.80;;;27.00;59.40;;;;;;5103699;28;20801;-71
2022/08/23 01:39:58;;;;;;;3.60;3.30;;;27.00;59.30;;;;;;5059527;28;20470;-73
2022/08/23 01:42:27;;;;;;;3.10;2.90;;;27.00;59.20;;;;;;5050956;28;20450;-70
2022/08/23 01:44:55;;;;;;;3.60;3.30;;;27.00;59.20;;;;;;5064756;28;20477;-70
2022/08/23 01:47:24;;;;;;;3.23;3.03;;;27.00;59.20;;;;;;5031267;28;20517;-70
2022/08/23 01:49:53;;;;;;;3.87;3.40;;;27.00;59.20;;;;;;5031158;28;20958;-72
2022/08/23 01:52:22;;;;;;;4.17;2.80;;;26.90;59.20;;;;;;5068584;28;20459;-70
2022/08/23 01:54:50;;;;;;;3.10;2.90;;;26.90;59.30;;;;;;5045086;28;20855;-71
2022/08/23 01:57:20;;;;;;;3.20;3.00;;;26.90;59.20;;;;;;5064321;28;20452;-71
2022/08/23 01:59:48;;;;;;;2.87;2.67;;;26.90;59.20;;;;;;5040015;28;20476;-71
2022/08/23 02:02:17;;;;;;;3.70;3.40;;;26.90;59.20;;;;;;5043213;28;20728;-71
2022/08/23 02:04:45;;;;;;;3.60;3.30;;;26.90;59.20;;;;;;5050561;28;20485;-71
2022/08/23 02:07:13;;;;;;;3.30;3.00;;;26.90;59.10;;;;;;5049990;28;20532;-74
2022/08/23 02:09:42;;;;;;;2.97;2.80;;;26.90;59.20;;;;;;5038631;28;20461;-70
2022/08/23 02:12:10;;;;;;;4.30;3.40;;;26.90;59.20;;;;;;5064012;28;20469;-71
2022/08/23 02:14:42;;;;;;;3.30;3.10;;;26.90;59.20;;;;;;5051523;28;20942;-71
2022/08/23 02:17:19;;;;;;;3.40;3.20;;;26.80;59.20;;;;;;5040840;28;20485;-71
2022/08/23 02:19:47;;;;;;;3.60;3.30;;;26.80;59.20;;;;;;5079066;28;20472;-71
2022/08/23 02:22:15;;;;;;;3.20;3.00;;;26.80;59.20;;;;;;5038287;28;20545;-71
2022/08/23 02:24:46;;;;;;;3.67;3.47;;;26.80;59.20;;;;;;5051444;28;20486;-74
2022/08/23 02:27:16;;;;;;;3.40;3.20;;;26.80;59.20;;;;;;5063476;28;20486;-72
2022/08/23 02:29:48;;;;;;;3.80;3.50;;;26.80;59.10;;;;;;5046538;28;20459;-71
2022/08/23 02:32:20;;;;;;;3.07;2.87;;;26.80;59.10;;;;;;5049242;28;20461;-71
2022/08/23 02:34:49;;;;;;;3.33;3.13;;;26.80;59.30;;;;;;5067984;28;20843;-72
2022/08/23 02:37:33;;;;;;;4.30;3.90;;;26.80;59.20;;;;;;5058260;28;20949;-71
2022/08/23 02:40:02;;;;;;;2.80;2.70;;;26.70;59.20;;;;;;5046269;28;20743;-72
2022/08/23 02:42:32;;;;;;;3.43;3.23;;;26.70;59.30;;;;;;5068225;28;20965;-71
2022/08/23 02:45:03;;;;;;;3.60;3.40;;;26.70;59.20;;;;;;5051960;28;20856;-71
2022/08/23 02:47:35;;;;;;;3.50;3.00;;;26.70;59.20;;;;;;5062701;28;20480;-71
2022/08/23 02:50:21;;;;;;;3.47;3.27;;;26.70;59.20;;;;;;5052176;28;20510;-71
2022/08/23 02:52:49;;;;;;;3.17;2.97;;;26.70;59.20;;;;;;5060873;28;20465;-71
2022/08/23 02:55:18;;;;;;;2.90;2.80;;;26.70;59.00;;;;;;5067135;28;20535;-74
2022/08/23 02:57:46;;;;;;;3.07;2.87;;;26.70;58.90;;;;;;5052997;28;20458;-72
2022/08/23 03:00:17;;;;;;;3.30;3.00;;;26.70;59.00;;;;;;5041796;28;20516;-72
2022/08/23 03:02:46;;;;;;;3.30;3.00;;;26.70;58.90;;;;;;5054322;28;20489;-71
2022/08/23 03:05:15;;;;;;;3.50;3.30;;;26.60;58.90;;;;;;5064826;28;20514;-71
2022/08/23 03:07:44;;;;;;;3.60;3.37;;;26.60;59.00;;;;;;5058757;28;20823;-74
2022/08/23 03:10:13;;;;;;;2.77;2.67;;;26.60;58.90;;;;;;5072436;28;20513;-72
2022/08/23 03:12:47;;;;;;;2.90;2.73;;;26.60;58.90;;;;;;5049114;28;20532;-75
2022/08/23 03:15:17;;;;;;;2.90;2.77;;;26.60;58.90;;;;;;5050857;28;20801;-71
2022/08/23 03:17:45;;;;;;;3.30;3.20;;;26.60;58.90;;;;;;5057362;28;20541;-69
2022/08/23 03:20:13;;;;;;;3.27;3.07;;;26.60;58.90;;;;;;5054010;28;20466;-72
2022/08/23 03:22:42;;;;;;;2.83;2.63;;;26.60;58.90;;;;;;5046894;28;20461;-68
2022/08/23 03:25:22;;;;;;;3.17;2.97;;;26.60;58.90;;;;;;5047557;28;20522;-68
2022/08/23 03:28:04;;;;;;;3.00;2.80;;;26.50;58.60;;;;;;5041907;28;20563;-68
2022/08/23 03:30:35;;;;;;;2.63;2.53;;;26.50;58.70;;;;;;5036586;28;20473;-72
2022/08/23 03:33:05;;;;;;;3.27;3.07;;;26.50;58.70;;;;;;5068384;28;20862;-70
2022/08/23 03:35:33;;;;;;;3.00;2.80;;;26.60;58.80;;;;;;5051177;28;20468;-69
2022/08/23 03:38:03;;;;;;;2.40;2.30;;;26.50;58.80;;;;;;5054934;28;20471;-68
2022/08/23 03:40:31;;;;;;;2.80;2.60;;;26.50;58.90;;;;;;5046529;28;20518;-71
2022/08/23 03:43:01;;;;;;;3.17;2.97;;;26.50;58.90;;;;;;5051669;28;20532;-69
2022/08/23 03:45:30;;;;;;;4.17;2.67;;;26.60;59.00;;;;;;5068782;28;20810;-70
2022/08/23 03:48:00;;;;;;;3.70;2.63;;;26.60;59.00;;;;;;5066613;28;20479;-74
2022/08/23 03:50:32;;;;;;;3.13;2.77;;;26.60;59.20;;;;;;5038886;28;20494;-76
2022/08/23 03:53:00;;;;;;;3.53;2.90;;;26.60;59.20;;;;;;5042773;28;20453;-68
2022/08/23 03:55:28;;;;;;;2.87;2.57;;;26.60;59.20;;;;;;5039047;28;20486;-70
2022/08/23 03:57:57;;;;;;;3.80;2.80;;;26.60;59.30;;;;;;5077081;28;20469;-68
2022/08/23 04:00:25;;;;;;;3.33;3.07;;;26.60;59.40;;;;;;5046244;28;20520;-73
2022/08/23 04:02:54;;;;;;;2.90;2.70;;;26.60;59.40;;;;;;5044727;28;20890;-68
2022/08/23 04:05:25;;;;;;;4.20;2.73;;;26.60;59.50;;;;;;5071664;28;20545;-68
2022/08/23 04:07:58;;;;;;;3.60;3.30;;;26.60;59.50;;;;;;5069268;28;20968;-71
2022/08/23 04:10:28;;;;;;;3.20;2.90;;;26.60;59.50;;;;;;5046929;28;20549;-69
2022/08/23 04:12:56;;;;;;;3.23;2.93;;;26.60;59.50;;;;;;5035725;28;20455;-68
2022/08/23 04:15:24;;;;;;;2.70;2.60;;;26.60;59.50;;;;;;5044515;28;20608;-68
2022/08/23 04:17:53;;;;;;;3.03;2.83;;;26.60;59.60;;;;;;5033815;28;20482;-70
2022/08/23 04:20:23;;;;;;;3.87;2.90;;;26.60;59.60;;;;;;5040862;28;20475;-68
2022/08/23 04:22:58;;;;;;;2.80;2.60;;;26.60;59.60;;;;;;5038833;28;20470;-68
2022/08/23 04:25:30;;;;;;;3.43;2.53;;;26.60;59.60;;;;;;5039386;28;20489;-68
2022/08/23 04:28:04;;;;;;;2.97;2.77;;;26.60;59.60;;;;;;5031758;28;20529;-68
2022/08/23 04:30:33;;;;;;;2.97;2.77;;;26.60;59.60;;;;;;5067451;28;20716;-69
2022/08/23 04:33:03;;;;;;;3.00;2.80;;;26.60;59.60;;;;;;5086689;28;20447;-70
2022/08/23 04:35:40;;;;;;;3.90;2.70;;;26.60;59.60;;;;;;5069045;28;20444;-71
2022/08/23 04:38:10;;;;;;;2.67;2.47;;;26.60;59.60;;;;;;5049564;28;20554;-69
2022/08/23 04:43:42;;;;;;;3.00;2.70;;;26.60;59.60;;;;;;5048162;28;20460;-69
2022/08/23 04:46:14;;;;;;;3.57;2.93;;;26.60;59.60;;;;;;5047522;28;20965;-69
2022/08/23 04:48:45;;;;;;;3.30;2.83;;;26.60;59.70;;;;;;5064946;28;20987;-69
2022/08/23 04:51:15;;;;;;;2.97;2.77;;;26.60;59.70;;;;;;5068781;28;20461;-70
2022/08/23 04:53:45;;;;;;;3.10;2.90;;;26.60;59.70;;;;;;5072158;28;20436;-70
2022/08/23 04:56:34;;;;;;;2.87;2.67;;;26.60;59.70;;;;;;5072478;28;20453;-68
2022/08/23 04:59:03;;;;;;;3.10;2.90;;;26.60;59.70;;;;;;5063731;28;20961;-68
2022/08/23 05:01:33;;;;;;;3.33;3.00;;;26.60;59.70;;;;;;5031493;28;20796;-69
2022/08/23 05:04:01;;;;;;;2.40;2.27;;;26.60;59.70;;;;;;5064293;28;20474;-68
2022/08/23 05:06:31;;;;;;;3.97;2.93;;;26.60;59.70;;;;;;5077270;28;20473;-70
2022/08/23 05:09:01;;;;;;;3.13;2.70;;;26.60;59.70;;;;;;5039764;28;20755;-70
2022/08/23 05:11:32;;;;;;;3.20;2.87;;;26.60;59.80;;;;;;5064805;28;20977;-68
2022/08/23 05:14:00;;;;;;;4.80;2.90;;;26.60;59.80;;;;;;5049089;28;20503;-68
2022/08/23 05:16:29;;;;;;;3.30;3.10;;;26.60;59.80;;;;;;5081867;28;20505;-68
2022/08/23 05:19:05;;;;;;;5.33;3.73;;;26.60;59.80;;;;;;5054694;28;20470;-68
2022/08/23 05:21:39;;;;;;;2.90;2.70;;;26.60;59.80;;;;;;5050785;28;20611;-71
2022/08/23 05:24:09;;;;;;;2.50;2.27;;;26.60;59.80;;;;;;5051102;28;20955;-68
2022/08/23 05:26:42;;;;;;;2.13;2.03;;;26.60;59.90;;;;;;5050940;28;20452;-69
2022/08/23 05:29:14;;;;;;;3.90;2.90;;;26.60;59.90;;;;;;5051175;28;20470;-69
2022/08/23 05:31:49;;;;;;;2.73;2.17;;;26.60;59.90;;;;;;5061640;28;20806;-69
2022/08/23 05:34:20;;;;;;;2.40;2.30;;;26.60;59.90;;;;;;5052857;28;20457;-68
2022/08/23 05:36:56;;;;;;;2.70;2.60;;;26.60;59.90;;;;;;5050896;28;20488;-68
2022/08/23 05:39:31;;;;;;;2.67;2.33;;;26.60;59.90;;;;;;5092334;28;20466;-68
2022/08/23 05:42:07;;;;;;;2.00;1.90;;;26.60;59.90;;;;;;5063204;28;20489;-68
2022/08/23 05:44:37;;;;;;;2.80;2.60;;;26.60;60.00;;;;;;5063733;28;20495;-69
2022/08/23 05:47:10;;;;;;;2.30;2.20;;;26.60;60.00;;;;;;5063728;28;20454;-70
2022/08/23 05:49:57;;;;;;;2.87;2.67;;;26.60;60.00;;;;;;5040983;28;20512;-70
2022/08/23 05:52:27;;;;;;;2.97;2.23;;;26.60;60.00;;;;;;5043092;28;20559;-68
2022/08/23 05:54:57;;;;;;;3.10;2.90;;;26.60;60.00;;;;;;5050748;28;20900;-68
2022/08/23 05:57:45;;;;;;;2.33;2.23;;;26.50;60.00;;;;;;5044122;28;20459;-69
2022/08/23 06:00:14;;;;;;;2.60;2.40;;;26.60;60.00;;;;;;5050886;28;20493;-69
2022/08/23 06:02:57;;;;;;;2.67;2.47;;;26.60;60.00;;;;;;5052440;28;20476;-68
2022/08/23 06:05:25;;;;;;;2.97;2.50;;;26.60;60.00;;;;;;5048089;28;20534;-68
2022/08/23 06:07:54;;;;;;;2.70;2.50;;;26.60;60.00;;;;;;5074166;28;20498;-69
2022/08/23 06:10:25;;;;;;;2.30;2.20;;;26.60;60.00;;;;;;5050319;28;20464;-68
2022/08/23 06:13:02;;;;;;;2.63;2.53;;;26.60;60.10;;;;;;5046869;28;20506;-68
2022/08/23 06:15:31;;;;;;;2.67;2.50;;;26.60;60.00;;;;;;5049863;28;20557;-69
2022/08/23 06:17:59;;;;;;;2.50;2.40;;;26.60;60.10;;;;;;5044642;28;20542;-69
2022/08/23 06:20:28;;;;;;;2.40;2.20;;;26.60;60.10;;;;;;5059666;28;20473;-69
2022/08/23 06:23:07;;;;;;;2.70;2.20;;;26.60;60.10;;;;;;5059355;28;20560;-68
2022/08/23 06:25:40;;;;;;;2.53;2.43;;;26.60;60.10;;;;;;5083273;28;20471;-73
2022/08/23 06:28:14;;;;;;;2.73;2.53;;;26.60;60.10;;;;;;5054916;28;20449;-69
2022/08/23 06:30:43;;;;;;;2.30;2.20;;;26.60;60.10;;;;;;5049944;28;20880;-69
2022/08/23 06:33:22;;;;;;;2.90;2.70;;;26.60;60.10;;;;;;5044893;28;20464;-69
2022/08/23 06:36:10;;;;;;;3.10;2.80;;;26.60;60.10;;;;;;5055348;28;20450;-69
2022/08/23 06:39:10;;;;;;;2.90;2.63;;;26.60;60.10;;;;;;5061838;28;20452;-72
2022/08/23 06:42:11;;;;;;;2.40;2.30;;;26.60;60.20;;;;;;5066956;28;20939;-69
2022/08/23 06:45:03;;;;;;;2.80;2.60;;;26.60;60.20;;;;;;5067439;28;20465;-68
2022/08/23 06:47:40;;;;;;;2.30;2.10;;;26.60;60.20;;;;;;5034244;28;20455;-70
2022/08/23 06:50:09;;;;;;;2.30;2.20;;;26.60;60.20;;;;;;5042154;28;20826;-68
2022/08/23 06:53:03;;;;;;;2.70;2.50;;;26.60;60.10;;;;;;5036660;28;20451;-69
2022/08/23 06:55:55;;;;;;;2.47;2.27;;;26.60;60.10;;;;;;5049193;28;20457;-68
2022/08/23 06:58:28;;;;;;;2.57;2.30;;;26.60;60.20;;;;;;5043768;28;20463;-68
2022/08/23 07:01:29;;;;;;;2.70;2.50;;;26.60;60.20;;;;;;5034209;28;20925;-69
2022/08/23 07:04:34;;;;;;;2.97;2.77;;;26.60;60.20;;;;;;5035568;28;20495;-68
2022/08/23 07:07:25;;;;;;;2.33;2.23;;;26.60;60.20;;;;;;5046084;28;20800;-68
2022/08/23 07:10:11;;;;;;;2.33;2.23;;;26.60;60.10;;;;;;5057770;28;20475;-68
2022/08/23 07:12:40;;;;;;;2.80;2.60;;;26.60;60.20;;;;;;5087801;28;20469;-71
2022/08/23 07:15:12;;;;;;;3.27;2.10;;;26.60;60.20;;;;;;5055783;28;20473;-70
2022/08/23 07:17:43;;;;;;;2.73;2.53;;;26.60;60.20;;;;;;5053419;28;20487;-70
2022/08/23 07:20:12;;;;;;;2.33;2.23;;;26.60;60.20;;;;;;5050182;28;20457;-69
2022/08/23 07:22:43;;;;;;;2.00;1.90;;;26.70;60.20;;;;;;5050501;28;20458;-69
2022/08/23 07:25:12;;;;;;;2.20;2.10;;;26.70;60.20;;;;;;5034966;28;20439;-69
2022/08/23 07:27:43;;;;;;;2.40;2.20;;;26.70;60.20;;;;;;5067070;28;20508;-69
2022/08/23 07:30:17;;;;;;;2.03;1.93;;;26.70;60.20;;;;;;5107698;28;20489;-73
2022/08/23 07:32:46;;;;;;;2.57;2.47;;;26.70;60.20;;;;;;5033413;28;20538;-69
2022/08/23 07:35:21;;;;;;;2.60;2.40;;;26.70;60.20;;;;;;5040384;28;20450;-72
2022/08/23 07:37:51;;;;;;;2.57;2.27;;;26.70;60.10;;;;;;5055108;28;20457;-69
2022/08/23 07:40:19;;;;;;;2.47;2.37;;;26.70;60.20;;;;;;5053413;28;20454;-69
2022/08/23 07:42:52;;;;;;;2.50;2.30;;;26.70;60.20;;;;;;5047780;28;20519;-69
2022/08/23 07:45:22;;;;;;;2.23;2.13;;;26.70;60.20;;;;;;5043970;28;20952;-69
2022/08/23 07:47:54;;;;;;;2.53;2.43;;;26.70;60.10;;;;;;5052469;28;20528;-68
2022/08/23 07:50:25;;;;;;;2.80;2.60;;;26.70;60.10;;;;;;5087235;28;20476;-68
2022/08/23 07:52:59;;;;;;;2.30;2.20;;;26.70;60.10;;;;;;5091377;28;20982;-70
2022/08/23 07:55:28;;;;;;;2.57;2.30;;;26.70;60.10;;;;;;5052655;28;20553;-70
2022/08/23 07:58:12;;;;;;;2.60;2.40;;;26.70;60.10;;;;;;5053506;28;20945;-71
2022/08/23 08:00:57;;;;;;;2.70;2.60;;;26.70;60.10;;;;;;5053662;28;20462;-68
2022/08/23 08:03:43;;;;;;;2.07;1.97;;;26.70;60.10;;;;;;5035526;28;21048;-69
2022/08/23 08:06:24;;;;;;;2.30;2.20;;;26.80;60.10;;;;;;5037177;28;20458;-69
2022/08/23 08:08:53;;;;;;;2.30;2.20;;;26.70;60.10;;;;;;5049840;28;20454;-69
2022/08/23 08:11:24;;;;;;;2.83;2.30;;;26.80;60.10;;;;;;5043175;28;20459;-69
2022/08/23 08:13:54;;;;;;;2.67;2.47;;;26.80;60.10;;;;;;5038456;28;20549;-68
2022/08/23 08:16:27;;;;;;;2.33;2.23;;;26.80;60.10;;;;;;5073699;28;20574;-68
2022/08/23 08:18:58;;;;;;;2.40;2.30;;;26.80;60.10;;;;;;5051858;28;20452;-68
2022/08/23 08:21:52;;;;;;;2.23;2.13;;;26.80;60.10;;;;;;5073467;28;20837;-70
2022/08/23 08:24:28;;;;;;;2.23;2.13;;;26.80;60.10;;;;;;5064740;28;20595;-69
2022/08/23 08:27:04;;;;;;;2.27;2.17;;;26.80;60.10;;;;;;5087850;28;20454;-69
2022/08/23 08:29:33;;;;;;;2.40;2.30;;;26.80;60.10;;;;;;5072021;28;20481;-69
2022/08/23 08:32:03;;;;;;;2.50;2.40;;;26.80;60.10;;;;;;5033258;28;20944;-69
2022/08/23 08:34:32;;;;;;;2.70;2.50;;;26.80;60.10;;;;;;5065348;28;20461;-69
2022/08/23 08:37:01;;;;;;;2.13;2.03;;;26.80;60.00;;;;;;5033185;28;20801;-75
2022/08/23 08:39:32;;;;;;;2.60;2.40;;;26.80;60.00;;;;;;5073068;28;20535;-70
2022/08/23 08:42:26;;;;;;;2.10;2.00;;;26.80;60.10;;;;;;5043110;28;20479;-69
2022/08/23 08:44:58;;;;;;;2.50;2.40;;;26.80;60.10;;;;;;5052912;28;20444;-68
2022/08/23 08:47:48;;;;;;;2.10;2.00;;;26.80;60.00;;;;;;5052274;28;20460;-69
2022/08/23 08:50:22;;;;;;;2.47;2.27;;;26.80;60.00;;;;;;5035498;28;20829;-68
2022/08/23 08:53:00;;;;;;;2.30;2.20;;;26.80;60.00;;;;;;5051487;28;20457;-68
2022/08/23 08:55:53;;;;;;;1.90;1.80;;;26.80;60.00;;;;;;5049664;28;20516;-70
2022/08/23 08:58:27;;;;;;;2.97;2.33;;;26.90;60.00;;;;;;5065572;28;20451;-69
2022/08/23 09:00:57;;;;;;;2.40;2.20;;;26.90;60.00;;;;;;5066449;28;20841;-69
2022/08/23 09:03:32;;;;;;;2.20;2.10;;;26.90;60.00;;;;;;5064616;28;20974;-69
2022/08/23 09:06:14;;;;;;;2.10;2.00;;;26.90;60.00;;;;;;5068178;28;20493;-69
2022/08/23 09:08:57;;;;;;;2.90;2.67;;;26.90;60.00;;;;;;5052076;28;20454;-69
2022/08/23 09:11:36;;;;;;;2.00;1.90;;;26.90;60.00;;;;;;5037608;28;20479;-70
2022/08/23 09:14:27;;;;;;;2.50;2.40;;;26.90;60.00;;;;;;5049967;28;20455;-69
2022/08/23 09:17:03;;;;;;;2.80;2.60;;;26.90;60.00;;;;;;5051290;28;20482;-70
2022/08/23 09:19:37;;;;;;;2.20;2.10;;;26.90;60.00;;;;;;5056421;28;20465;-69
2022/08/23 09:22:12;;;;;;;3.20;3.10;;;26.90;60.00;;;;;;5053270;28;20470;-69
2022/08/23 09:24:41;;;;;;;2.50;2.40;;;26.90;60.00;;;;;;5035139;28;21094;-71
2022/08/23 09:27:15;;;;;;;2.10;2.00;;;26.90;60.00;;;;;;5064850;28;20935;-69
2022/08/23 09:29:53;;;;;;;2.20;2.10;;;26.90;60.00;;;;;;5078625;28;20450;-69
2022/08/23 09:32:32;;;;;;;2.50;2.40;;;26.90;59.90;;;;;;5052313;28;20440;-68
2022/08/23 09:35:11;;;;;;;2.60;2.50;;;26.90;59.90;;;;;;5084399;28;20434;-68
2022/08/23 09:37:57;;;;;;;2.53;2.43;;;26.90;59.90;;;;;;5048722;28;20469;-68
2022/08/23 09:40:33;;;;;;;2.00;1.90;;;26.90;60.00;;;;;;5031454;28;20504;-68
2022/08/23 09:43:12;;;;;;;2.23;2.03;;;26.90;60.00;;;;;;5031905;28;20838;-69
2022/08/23 09:45:52;;;;;;;2.10;2.00;;;26.90;59.90;;;;;;5046882;28;20474;-68
2022/08/23 09:48:37;;;;;;;2.20;2.00;;;26.90;59.90;;;;;;5063280;28;20670;-68
2022/08/23 09:51:18;;;;;;;2.17;2.07;;;27.00;59.90;;;;;;5064086;28;20505;-69
2022/08/23 09:53:50;;;;;;;2.60;2.40;;;27.00;59.90;;;;;;5032439;28;20434;-69
2022/08/23 09:56:24;;;;;;;2.40;2.30;;;27.00;59.90;;;;;;5031417;28;20558;-68
2022/08/23 09:58:54;;;;;;;2.70;2.57;;;27.00;59.90;;;;;;5040806;28;20557;-69
2022/08/23 10:01:37;;;;;;;2.43;2.30;;;27.00;59.90;;;;;;5050406;28;20490;-68
2022/08/23 10:04:15;;;;;;;2.30;2.20;;;27.00;59.90;;;;;;5050535;28;20485;-70
2022/08/23 10:06:46;;;;;;;2.40;2.30;;;27.00;59.80;;;;;;5089478;28;20488;-68
2022/08/23 10:09:24;;;;;;;2.20;2.10;;;27.00;59.80;;;;;;5070755;28;20455;-68
2022/08/23 10:11:53;;;;;;;2.10;2.00;;;27.00;59.80;;;;;;5068734;28;20471;-68
2022/08/23 10:14:25;;;;;;;2.30;2.20;;;27.00;59.80;;;;;;5051000;28;20451;-68
2022/08/23 10:17:06;;;;;;;2.63;2.53;;;27.00;59.80;;;;;;5049899;28;21360;-68
2022/08/23 10:19:43;;;;;;;2.27;2.07;;;27.00;59.80;;;;;;5041732;28;20534;-68
2022/08/23 10:22:19;;;;;;;2.37;2.20;;;27.00;59.80;;;;;;5031163;28;20455;-68
2022/08/23 10:25:14;;;;;;;2.33;2.23;;;27.00;59.80;;;;;;5043575;28;20446;-68
2022/08/23 10:30:51;;;;;;;2.13;1.93;;;27.10;59.80;;;;;;5050342;28;20478;-68
2022/08/23 10:33:26;;;;;;;2.20;2.00;;;27.10;59.80;;;;;;5041390;28;20469;-68
2022/08/23 10:36:05;;;;;;;2.50;2.37;;;27.10;59.80;;;;;;5067686;28;20511;-71
2022/08/23 10:38:42;;;;;;;2.33;2.13;;;27.10;59.80;;;;;;5050330;28;20786;-68
2022/08/23 10:41:35;;;;;;;1.97;1.87;;;27.10;59.90;;;;;;5084606;28;20488;-69
2022/08/23 10:44:22;;;;;;;2.20;2.10;;;27.10;59.90;;;;;;5089538;28;20466;-68
2022/08/23 10:47:02;;;;;;;2.67;2.43;;;27.10;59.90;;;;;;5050726;28;20447;-68
2022/08/23 10:49:33;;;;;;;2.33;2.23;;;27.20;59.90;;;;;;5038981;28;20470;-68
2022/08/23 10:52:05;;;;;;;2.10;2.00;;;27.20;60.00;;;;;;5064114;28;20471;-68
2022/08/23 10:54:45;;;;;;;2.47;2.37;;;27.20;59.90;;;;;;5031698;28;20467;-71
2022/08/23 10:57:20;;;;;;;2.20;2.10;;;27.20;59.90;;;;;;5030332;28;20444;-70
2022/08/23 10:59:52;;;;;;;2.57;2.47;;;27.20;59.70;;;;;;5031812;28;20458;-69
2022/08/23 11:02:31;;;;;;;2.30;2.20;;;27.20;59.70;;;;;;5063419;28;20460;-68
2022/08/23 11:05:21;;;;;;;2.00;1.90;;;27.20;59.90;;;;;;5030108;28;20452;-69
2022/08/23 11:08:01;;;;;;;2.33;2.23;;;27.30;59.70;;;;;;5050265;28;21016;-69
2022/08/23 11:10:46;;;;;;;2.30;2.20;;;27.30;59.70;;;;;;5050635;28;20513;-69
2022/08/23 11:13:28;;;;;;;3.17;2.87;;;27.30;59.70;;;;;;5035326;28;20467;-69
2022/08/23 11:15:59;;;;;;;2.17;2.07;;;27.30;59.70;;;;;;5068241;28;20442;-69
2022/08/23 11:18:40;;;;;;;3.07;2.17;;;27.30;59.70;;;;;;5067785;28;20950;-69
2022/08/23 11:21:47;;;;;;;2.20;2.10;;;27.30;59.70;;;;;;5030193;28;20450;-69
2022/08/23 11:24:49;;;;;;;2.00;1.90;;;27.40;59.60;;;;;;5031466;28;20461;-72
2022/08/23 11:27:39;;;;;;;2.03;1.90;;;27.40;59.50;;;;;;5065734;28;21015;-70
2022/08/23 11:30:44;;;;;;;2.77;2.67;;;27.40;59.50;;;;;;5087898;28;20506;-72
2022/08/23 11:33:19;;;;;;;1.90;1.80;;;27.40;59.40;;;;;;5073282;28;20461;-69
2022/08/23 11:35:51;;;;;;;2.13;2.03;;;27.40;59.40;;;;;;5065590;28;20555;-71
2022/08/23 11:38:54;;;;;;;2.03;1.93;;;27.40;59.40;;;;;;5049103;28;20462;-68
2022/08/23 11:41:24;;;;;;;2.10;2.00;;;27.40;59.40;;;;;;5033993;28;20455;-71
2022/08/23 11:44:23;;;;;;;2.20;2.10;;;27.40;59.40;;;;;;5082047;28;20545;-69
2022/08/23 11:47:00;;;;;;;2.40;2.20;;;27.40;59.30;;;;;;5043382;28;20460;-68
2022/08/23 11:50:06;;;;;;;2.30;2.20;;;27.40;59.40;;;;;;5052951;28;20982;-68
2022/08/23 11:53:06;;;;;;;2.27;2.07;;;27.40;59.30;;;;;;5043000;28;20474;-70
2022/08/23 11:56:01;;;;;;;2.00;1.90;;;27.50;59.30;;;;;;5054888;28;20462;-69
2022/08/23 11:58:52;;;;;;;2.57;2.43;;;27.50;59.20;;;;;;5053777;28;20906;-69
2022/08/23 12:01:31;;;;;;;2.00;1.90;;;27.40;59.30;;;;;;5034572;28;20434;-69
2022/08/23 12:04:08;;;;;;;2.00;1.90;;;27.40;59.40;;;;;;5053577;28;20493;-69
2022/08/23 12:06:46;;;;;;;2.33;2.13;;;27.40;59.30;;;;;;5054023;28;20447;-69
2022/08/23 12:09:54;;;;;;;3.83;2.47;;;27.40;59.40;;;;;;5062928;28;20494;-69
2022/08/23 12:12:33;;;;;;;2.10;2.00;;;27.50;59.30;;;;;;5034248;28;20516;-69
2022/08/23 12:15:12;;;;;;;2.07;1.97;;;27.50;59.30;;;;;;5034371;28;20493;-69
2022/08/23 12:18:12;;;;;;;1.83;1.73;;;27.60;59.20;;;;;;5034018;28;20510;-68
2022/08/23 12:20:42;;;;;;;1.97;1.87;;;27.60;59.00;;;;;;5034052;28;20488;-68
2022/08/23 12:23:19;;;;;;;2.13;2.03;;;27.70;59.00;;;;;;5034516;28;20907;-69
2022/08/23 12:26:21;;;;;;;1.90;1.80;;;27.70;59.00;;;;;;5034061;28;20453;-69
2022/08/23 12:28:57;;;;;;;2.20;2.10;;;27.70;58.90;;;;;;5035085;28;20465;-69
2022/08/23 12:31:33;;;;;;;2.47;2.27;;;27.80;58.90;;;;;;5033529;28;20437;-69
2022/08/23 12:34:15;;;;;;;2.20;2.10;;;27.80;58.80;;;;;;5033872;28;20448;-69
2022/08/23 12:36:50;;;;;;;1.90;1.80;;;27.80;58.80;;;;;;5041734;28;20450;-69
2022/08/23 12:39:33;;;;;;;2.20;2.10;;;27.80;58.80;;;;;;5033121;28;20476;-71
2022/08/23 12:42:09;;;;;;;2.13;2.03;;;27.80;58.80;;;;;;5038121;28;20554;-69
2022/08/23 12:44:37;;;;;;;2.10;2.00;;;27.80;58.80;;;;;;5033334;28;20837;-69
2022/08/23 12:47:15;;;;;;;2.00;1.90;;;27.90;58.80;;;;;;5039509;28;20971;-69
2022/08/23 12:49:55;;;;;;;2.20;2.10;;;27.90;58.80;;;;;;5039896;28;20470;-72
2022/08/23 12:52:26;;;;;;;2.00;1.90;;;27.90;58.80;;;;;;5050860;28;20508;-69
2022/08/23 12:54:56;;;;;;;2.33;2.00;;;27.80;58.90;;;;;;5050860;28;20503;-69
2022/08/23 12:57:34;;;;;;;1.90;1.80;;;27.80;58.90;;;;;;5045104;28;20449;-69
2022/08/23 13:00:16;;;;;;;1.90;1.80;;;27.80;58.90;;;;;;5033510;28;20434;-68
2022/08/23 13:02:51;;;;;;;2.33;2.13;;;27.80;58.90;;;;;;5032944;28;20434;-69
2022/08/23 13:05:36;;;;;;;2.50;2.23;;;27.80;59.00;;;;;;5038499;28;20531;-70
2022/08/23 13:08:09;;;;;;;1.90;1.80;;;27.80;59.00;;;;;;5037259;28;20454;-69
2022/08/23 13:10:40;;;;;;;2.23;2.13;;;27.80;59.00;;;;;;5058695;28;20449;-68
2022/08/23 13:13:10;;;;;;;2.07;1.97;;;27.80;58.90;;;;;;5039463;28;20478;-69
2022/08/23 13:15:48;;;;;;;2.03;1.93;;;27.80;59.00;;;;;;5039446;28;20435;-69
2022/08/23 13:18:28;;;;;;;2.10;2.00;;;27.80;59.00;;;;;;5052061;28;20490;-69
2022/08/23 13:21:17;;;;;;;2.27;2.17;;;27.80;59.00;;;;;;5063760;28;20442;-69
2022/08/23 13:23:46;;;;;;;2.03;1.87;;;27.90;58.90;;;;;;5072846;28;20789;-69
2022/08/23 13:26:36;;;;;;;2.30;2.20;;;27.80;59.00;;;;;;5035306;28;20437;-69
2022/08/23 13:29:20;;;;;;;2.10;2.00;;;27.90;58.90;;;;;;5032853;28;20475;-69
2022/08/23 13:31:54;;;;;;;1.80;1.70;;;27.90;59.00;;;;;;5039850;28;20577;-70
2022/08/23 13:34:36;;;;;;;2.10;2.00;;;27.90;58.90;;;;;;5040778;28;20474;-69
2022/08/23 13:37:17;;;;;;;2.20;2.10;;;27.90;58.90;;;;;;5052683;28;20441;-69
2022/08/23 13:39:48;;;;;;;1.60;1.60;;;27.90;58.90;;;;;;5033036;28;20505;-69
2022/08/23 13:42:27;;;;;;;1.90;1.80;;;27.90;58.90;;;;;;5047437;28;20545;-69